sensor_id;sensor_type;location;lat;lon;timestamp;pressure;altitude;pressure_sealevel;temperature;humidity
76074;BME280;64776;42.636;24.358;2023-06-26T00:00:48;89989.19;;;15.62;90.07
76074;BME280;64776;42.636;24.358;2023-06-26T00:03:50;89978.91;;;15.60;89.77
76074;BME280;64776;42.636;24.358;2023-06-26T00:06:51;89977.03;;;15.55;90.13
76074;BME280;64776;42.636;24.358;2023-06-26T00:09:52;89978.81;;;15.41;90.52
76074;BME280;64776;42.636;24.358;2023-06-26T00:12:53;89981.06;;;15.37;90.80
76074;BME280;64776;42.636;24.358;2023-06-26T00:15:54;89981.94;;;15.27;90.93
76074;BME280;64776;42.636;24.358;2023-06-26T00:18:56;89985.09;;;15.25;90.75
76074;BME280;64776;42.636;24.358;2023-06-26T00:21:57;89982.78;;;15.16;91.31
76074;BME280;64776;42.636;24.358;2023-06-26T00:24:57;89990.53;;;15.20;91.88
76074;BME280;64776;42.636;24.358;2023-06-26T00:27:58;89987.78;;;15.25;91.40
76074;BME280;64776;42.636;24.358;2023-06-26T00:30:59;89986.38;;;15.19;91.50
76074;BME280;64776;42.636;24.358;2023-06-26T00:34:01;89977.84;;;15.20;91.33
76074;BME280;64776;42.636;24.358;2023-06-26T00:37:02;89986.16;;;15.17;91.82
76074;BME280;64776;42.636;24.358;2023-06-26T00:40:03;89987.84;;;15.20;91.46
76074;BME280;64776;42.636;24.358;2023-06-26T00:43:04;89983.16;;;15.26;91.13
76074;BME280;64776;42.636;24.358;2023-06-26T00:46:09;89979.47;;;15.29;91.49
76074;BME280;64776;42.636;24.358;2023-06-26T00:49:12;89978.81;;;15.47;90.31
76074;BME280;64776;42.636;24.358;2023-06-26T00:52:13;89984.19;;;15.47;90.41
76074;BME280;64776;42.636;24.358;2023-06-26T00:55:14;89977.91;;;15.39;90.53
76074;BME280;64776;42.636;24.358;2023-06-26T00:58:14;89977.91;;;15.39;91.08
76074;BME280;64776;42.636;24.358;2023-06-26T01:01:15;89970.59;;;15.34;91.02
76074;BME280;64776;42.636;24.358;2023-06-26T01:04:17;89977.78;;;15.50;90.13
76074;BME280;64776;42.636;24.358;2023-06-26T01:07:19;89973.88;;;15.51;90.37
76074;BME280;64776;42.636;24.358;2023-06-26T01:10:21;89959.94;;;15.53;90.50
76074;BME280;64776;42.636;24.358;2023-06-26T01:13:23;89973.22;;;15.45;90.83
76074;BME280;64776;42.636;24.358;2023-06-26T01:16:24;89968.94;;;15.31;91.60
76074;BME280;64776;42.636;24.358;2023-06-26T01:19:29;89965.28;;;15.28;92.34
76074;BME280;64776;42.636;24.358;2023-06-26T01:22:36;89961.88;;;15.28;92.23
76074;BME280;64776;42.636;24.358;2023-06-26T01:25:43;89962.00;;;15.41;91.81
76074;BME280;64776;42.636;24.358;2023-06-26T01:28:51;89971.19;;;15.51;91.14
76074;BME280;64776;42.636;24.358;2023-06-26T01:31:52;89966.25;;;15.55;91.07
76074;BME280;64776;42.636;24.358;2023-06-26T01:34:53;89958.19;;;15.55;91.19
76074;BME280;64776;42.636;24.358;2023-06-26T01:37:54;89946.41;;;15.58;91.29
76074;BME280;64776;42.636;24.358;2023-06-26T01:41:11;89951.94;;;15.47;91.16
76074;BME280;64776;42.636;24.358;2023-06-26T01:44:18;89950.56;;;15.35;91.09
76074;BME280;64776;42.636;24.358;2023-06-26T01:47:25;89957.56;;;15.19;91.91
76074;BME280;64776;42.636;24.358;2023-06-26T01:50:32;89960.41;;;15.03;93.13
76074;BME280;64776;42.636;24.358;2023-06-26T01:53:38;89956.50;;;15.28;92.62
76074;BME280;64776;42.636;24.358;2023-06-26T01:56:40;89950.28;;;15.38;92.30
76074;BME280;64776;42.636;24.358;2023-06-26T01:59:42;89953.94;;;15.41;92.38
76074;BME280;64776;42.636;24.358;2023-06-26T02:02:44;89945.75;;;15.28;92.24
76074;BME280;64776;42.636;24.358;2023-06-26T02:05:44;89952.16;;;15.25;93.03
76074;BME280;64776;42.636;24.358;2023-06-26T02:08:45;89939.13;;;15.05;94.77
76074;BME280;64776;42.636;24.358;2023-06-26T02:11:46;89944.63;;;15.18;93.89
76074;BME280;64776;42.636;24.358;2023-06-26T02:14:48;89943.06;;;15.28;93.35
76074;BME280;64776;42.636;24.358;2023-06-26T02:17:49;89931.75;;;15.35;93.11
76074;BME280;64776;42.636;24.358;2023-06-26T02:20:50;89926.38;;;15.35;92.94
76074;BME280;64776;42.636;24.358;2023-06-26T02:23:51;89928.66;;;15.25;93.34
76074;BME280;64776;42.636;24.358;2023-06-26T02:26:51;89932.97;;;15.34;92.91
76074;BME280;64776;42.636;24.358;2023-06-26T02:29:54;89926.84;;;15.33;92.77
76074;BME280;64776;42.636;24.358;2023-06-26T02:32:55;89930.28;;;15.34;92.65
76074;BME280;64776;42.636;24.358;2023-06-26T02:35:56;89916.84;;;15.34;93.05
76074;BME280;64776;42.636;24.358;2023-06-26T02:38:57;89928.63;;;15.31;92.39
76074;BME280;64776;42.636;24.358;2023-06-26T02:41:57;89933.06;;;15.23;94.77
76074;BME280;64776;42.636;24.358;2023-06-26T02:45:00;89927.94;;;15.01;95.87
76074;BME280;64776;42.636;24.358;2023-06-26T02:48:00;89924.69;;;15.08;93.51
76074;BME280;64776;42.636;24.358;2023-06-26T02:51:01;89913.34;;;15.20;92.13
76074;BME280;64776;42.636;24.358;2023-06-26T02:54:02;89918.41;;;15.24;91.32
76074;BME280;64776;42.636;24.358;2023-06-26T02:57:03;89919.59;;;15.28;90.63
76074;BME280;64776;42.636;24.358;2023-06-26T03:00:06;89921.09;;;15.24;90.18
76074;BME280;64776;42.636;24.358;2023-06-26T03:03:09;89922.28;;;15.28;89.62
76074;BME280;64776;42.636;24.358;2023-06-26T03:06:10;89927.38;;;15.32;89.25
76074;BME280;64776;42.636;24.358;2023-06-26T03:09:10;89935.44;;;15.32;89.18
76074;BME280;64776;42.636;24.358;2023-06-26T03:12:11;89944.16;;;15.38;88.43
76074;BME280;64776;42.636;24.358;2023-06-26T03:15:13;89939.00;;;15.40;88.58
76074;BME280;64776;42.636;24.358;2023-06-26T03:18:14;89950.47;;;15.46;89.39
76074;BME280;64776;42.636;24.358;2023-06-26T03:21:15;89953.88;;;15.46;89.75
76074;BME280;64776;42.636;24.358;2023-06-26T03:24:16;89956.34;;;15.44;89.27
76074;BME280;64776;42.636;24.358;2023-06-26T03:27:17;89945.31;;;15.48;90.44
76074;BME280;64776;42.636;24.358;2023-06-26T03:30:19;89956.50;;;15.52;89.67
76074;BME280;64776;42.636;24.358;2023-06-26T03:33:19;89950.91;;;15.50;89.93
76074;BME280;64776;42.636;24.358;2023-06-26T03:36:20;89945.13;;;15.40;90.12
76074;BME280;64776;42.636;24.358;2023-06-26T03:39:21;89939.44;;;15.50;90.47
76074;BME280;64776;42.636;24.358;2023-06-26T03:42:22;89936.25;;;15.51;90.36
76074;BME280;64776;42.636;24.358;2023-06-26T03:45:24;89949.75;;;15.45;90.63
76074;BME280;64776;42.636;24.358;2023-06-26T03:48:25;89949.78;;;15.40;90.97
76074;BME280;64776;42.636;24.358;2023-06-26T03:51:25;89947.56;;;15.44;91.25
76074;BME280;64776;42.636;24.358;2023-06-26T03:54:26;89943.66;;;15.45;91.16
76074;BME280;64776;42.636;24.358;2023-06-26T03:57:27;89958.25;;;15.50;91.49
76074;BME280;64776;42.636;24.358;2023-06-26T04:00:29;89947.16;;;15.59;90.59
76074;BME280;64776;42.636;24.358;2023-06-26T04:03:30;89948.94;;;15.51;90.58
76074;BME280;64776;42.636;24.358;2023-06-26T04:06:30;89948.84;;;15.62;91.11
76074;BME280;64776;42.636;24.358;2023-06-26T04:09:31;89946.41;;;15.58;89.91
76074;BME280;64776;42.636;24.358;2023-06-26T04:12:32;89953.81;;;15.52;90.50
76074;BME280;64776;42.636;24.358;2023-06-26T04:15:34;89941.19;;;15.66;90.62
76074;BME280;64776;42.636;24.358;2023-06-26T04:18:35;89947.97;;;15.72;90.43
76074;BME280;64776;42.636;24.358;2023-06-26T04:21:36;89953.19;;;15.83;90.28
76074;BME280;64776;42.636;24.358;2023-06-26T04:24:36;89949.78;;;16.01;89.81
76074;BME280;64776;42.636;24.358;2023-06-26T04:27:37;89951.03;;;16.00;89.14
76074;BME280;64776;42.636;24.358;2023-06-26T04:30:39;89944.47;;;16.14;89.19
76074;BME280;64776;42.636;24.358;2023-06-26T04:33:40;89944.41;;;16.20;88.16
76074;BME280;64776;42.636;24.358;2023-06-26T04:36:41;89944.25;;;16.31;87.38
76074;BME280;64776;42.636;24.358;2023-06-26T04:39:42;89951.00;;;16.38;87.11
76074;BME280;64776;42.636;24.358;2023-06-26T04:42:43;89949.41;;;16.29;87.74
76074;BME280;64776;42.636;24.358;2023-06-26T04:45:45;89946.81;;;16.23;87.80
76074;BME280;64776;42.636;24.358;2023-06-26T04:48:45;89949.06;;;16.19;87.48
76074;BME280;64776;42.636;24.358;2023-06-26T04:51:46;89950.16;;;16.29;87.53
76074;BME280;64776;42.636;24.358;2023-06-26T04:54:47;89949.94;;;16.27;86.48
76074;BME280;64776;42.636;24.358;2023-06-26T04:57:48;89965.88;;;16.25;86.38
76074;BME280;64776;42.636;24.358;2023-06-26T05:00:50;89961.41;;;16.28;85.14
76074;BME280;64776;42.636;24.358;2023-06-26T05:03:51;89961.41;;;16.47;85.98
76074;BME280;64776;42.636;24.358;2023-06-26T05:06:51;89967.38;;;16.58;85.29
76074;BME280;64776;42.636;24.358;2023-06-26T05:09:52;89964.28;;;16.67;85.35
76074;BME280;64776;42.636;24.358;2023-06-26T05:12:53;89977.44;;;16.58;84.82
76074;BME280;64776;42.636;24.358;2023-06-26T05:15:55;89978.59;;;16.44;85.96
76074;BME280;64776;42.636;24.358;2023-06-26T05:18:56;89977.34;;;16.45;85.60
76074;BME280;64776;42.636;24.358;2023-06-26T05:21:56;89974.31;;;16.54;86.30
76074;BME280;64776;42.636;24.358;2023-06-26T05:24:59;89986.03;;;16.56;84.93
76074;BME280;64776;42.636;24.358;2023-06-26T05:28:00;89973.75;;;16.74;84.60
76074;BME280;64776;42.636;24.358;2023-06-26T05:31:03;89986.06;;;16.69;84.73
76074;BME280;64776;42.636;24.358;2023-06-26T05:34:05;89983.44;;;16.82;84.20
76074;BME280;64776;42.636;24.358;2023-06-26T05:37:07;89982.31;;;16.91;84.01
76074;BME280;64776;42.636;24.358;2023-06-26T05:40:09;89982.91;;;16.84;84.94
76074;BME280;64776;42.636;24.358;2023-06-26T05:43:10;89976.50;;;16.87;84.42
76074;BME280;64776;42.636;24.358;2023-06-26T05:46:13;89971.75;;;16.93;84.66
76074;BME280;64776;42.636;24.358;2023-06-26T05:49:13;89976.47;;;17.19;82.54
76074;BME280;64776;42.636;24.358;2023-06-26T05:52:15;89968.09;;;17.48;82.53
76074;BME280;64776;42.636;24.358;2023-06-26T05:55:16;89977.28;;;17.71;79.03
76074;BME280;64776;42.636;24.358;2023-06-26T05:58:18;89972.69;;;17.66;79.40
76074;BME280;64776;42.636;24.358;2023-06-26T06:01:21;89968.22;;;17.69;79.40
76074;BME280;64776;42.636;24.358;2023-06-26T06:04:22;89978.31;;;17.95;79.50
76074;BME280;64776;42.636;24.358;2023-06-26T06:07:23;89974.47;;;17.90;78.79
76074;BME280;64776;42.636;24.358;2023-06-26T06:10:24;89968.53;;;18.05;78.44
76074;BME280;64776;42.636;24.358;2023-06-26T06:13:24;89962.66;;;18.27;78.49
76074;BME280;64776;42.636;24.358;2023-06-26T06:16:27;89968.47;;;18.44;76.59
76074;BME280;64776;42.636;24.358;2023-06-26T06:19:27;89965.34;;;18.40;76.03
76074;BME280;64776;42.636;24.358;2023-06-26T06:22:28;89967.03;;;18.30;77.00
76074;BME280;64776;42.636;24.358;2023-06-26T06:25:29;89959.81;;;18.32;75.30
76074;BME280;64776;42.636;24.358;2023-06-26T06:28:30;89970.19;;;18.54;75.34
76074;BME280;64776;42.636;24.358;2023-06-26T06:31:32;89964.25;;;18.56;76.33
76074;BME280;64776;42.636;24.358;2023-06-26T06:34:33;89968.28;;;18.16;76.60
76074;BME280;64776;42.636;24.358;2023-06-26T06:37:34;89963.50;;;18.22;76.67
76074;BME280;64776;42.636;24.358;2023-06-26T06:40:35;89958.47;;;18.39;77.39
76074;BME280;64776;42.636;24.358;2023-06-26T06:43:35;89968.41;;;18.57;76.18
76074;BME280;64776;42.636;24.358;2023-06-26T06:46:38;89961.44;;;18.82;74.27
76074;BME280;64776;42.636;24.358;2023-06-26T06:49:39;89955.41;;;18.89;72.59
76074;BME280;64776;42.636;24.358;2023-06-26T06:52:40;89965.09;;;19.05;72.85
76074;BME280;64776;42.636;24.358;2023-06-26T06:55:40;89972.41;;;19.18;70.67
76074;BME280;64776;42.636;24.358;2023-06-26T06:58:41;89979.53;;;19.28;70.18
76074;BME280;64776;42.636;24.358;2023-06-26T07:01:43;89981.59;;;19.35;71.25
76074;BME280;64776;42.636;24.358;2023-06-26T07:04:44;89991.16;;;19.36;71.11
76074;BME280;64776;42.636;24.358;2023-06-26T07:07:45;89989.19;;;19.37;71.29
76074;BME280;64776;42.636;24.358;2023-06-26T07:10:46;89981.97;;;19.39;71.77
76074;BME280;64776;42.636;24.358;2023-06-26T07:13:46;89987.81;;;19.72;72.52
76074;BME280;64776;42.636;24.358;2023-06-26T07:16:48;89986.06;;;19.54;69.34
76074;BME280;64776;42.636;24.358;2023-06-26T07:19:49;90001.88;;;19.49;71.78
76074;BME280;64776;42.636;24.358;2023-06-26T07:22:50;90000.72;;;19.37;71.06
76074;BME280;64776;42.636;24.358;2023-06-26T07:25:51;89995.19;;;19.22;71.83
76074;BME280;64776;42.636;24.358;2023-06-26T07:28:52;89995.03;;;19.07;71.69
76074;BME280;64776;42.636;24.358;2023-06-26T07:31:54;89994.44;;;19.01;72.15
76074;BME280;64776;42.636;24.358;2023-06-26T07:34:55;89989.03;;;19.01;72.85
76074;BME280;64776;42.636;24.358;2023-06-26T07:37:55;89990.47;;;19.02;72.69
76074;BME280;64776;42.636;24.358;2023-06-26T07:40:56;89995.88;;;18.82;72.54
76074;BME280;64776;42.636;24.358;2023-06-26T07:43:58;89997.66;;;18.79;71.42
76074;BME280;64776;42.636;24.358;2023-06-26T07:47:00;90000.09;;;18.90;72.22
76074;BME280;64776;42.636;24.358;2023-06-26T07:50:01;90005.88;;;18.74;72.81
76074;BME280;64776;42.636;24.358;2023-06-26T07:53:01;90000.50;;;18.94;72.48
76074;BME280;64776;42.636;24.358;2023-06-26T07:56:02;90009.34;;;19.15;71.96
76074;BME280;64776;42.636;24.358;2023-06-26T07:59:03;90009.81;;;19.27;70.82
76074;BME280;64776;42.636;24.358;2023-06-26T08:02:05;90016.34;;;19.31;70.64
76074;BME280;64776;42.636;24.358;2023-06-26T08:05:07;90009.50;;;19.79;70.56
76074;BME280;64776;42.636;24.358;2023-06-26T08:08:08;90008.38;;;20.31;70.42
76074;BME280;64776;42.636;24.358;2023-06-26T08:11:08;90010.00;;;20.26;68.29
76074;BME280;64776;42.636;24.358;2023-06-26T08:14:09;90007.06;;;20.60;67.58
76074;BME280;64776;42.636;24.358;2023-06-26T08:17:11;89997.56;;;20.39;67.01
76074;BME280;64776;42.636;24.358;2023-06-26T08:20:12;89997.50;;;20.67;65.86
76074;BME280;64776;42.636;24.358;2023-06-26T08:23:13;90000.25;;;20.82;65.13
76074;BME280;64776;42.636;24.358;2023-06-26T08:26:14;89997.66;;;20.61;64.24
76074;BME280;64776;42.636;24.358;2023-06-26T08:29:16;89991.53;;;20.68;64.13
76074;BME280;64776;42.636;24.358;2023-06-26T08:32:18;90006.47;;;20.97;64.79
76074;BME280;64776;42.636;24.358;2023-06-26T08:35:19;90006.91;;;20.73;65.26
76074;BME280;64776;42.636;24.358;2023-06-26T08:38:19;90006.03;;;20.78;66.00
76074;BME280;64776;42.636;24.358;2023-06-26T08:41:20;90002.47;;;20.98;63.97
76074;BME280;64776;42.636;24.358;2023-06-26T08:44:21;90004.25;;;20.96;62.99
76074;BME280;64776;42.636;24.358;2023-06-26T08:47:23;90016.25;;;20.57;65.85
76074;BME280;64776;42.636;24.358;2023-06-26T08:50:28;90007.59;;;20.59;66.99
76074;BME280;64776;42.636;24.358;2023-06-26T08:53:39;90002.78;;;20.80;64.62
76074;BME280;64776;42.636;24.358;2023-06-26T08:56:42;90005.25;;;21.14;67.24
76074;BME280;64776;42.636;24.358;2023-06-26T08:59:45;90000.00;;;21.46;61.85
76074;BME280;64776;42.636;24.358;2023-06-26T09:02:47;89996.72;;;21.25;62.66
76074;BME280;64776;42.636;24.358;2023-06-26T09:05:48;89999.50;;;21.47;62.88
76074;BME280;64776;42.636;24.358;2023-06-26T09:08:49;89998.94;;;21.71;63.12
76074;BME280;64776;42.636;24.358;2023-06-26T09:11:49;90002.19;;;21.40;61.83
76074;BME280;64776;42.636;24.358;2023-06-26T09:14:50;90002.53;;;21.14;63.36
76074;BME280;64776;42.636;24.358;2023-06-26T09:17:56;90004.88;;;21.25;63.02
76074;BME280;64776;42.636;24.358;2023-06-26T09:20:57;90012.69;;;21.66;61.82
76074;BME280;64776;42.636;24.358;2023-06-26T09:23:58;90017.41;;;21.65;60.59
76074;BME280;64776;42.636;24.358;2023-06-26T09:26:59;90007.44;;;21.98;61.35
76074;BME280;64776;42.636;24.358;2023-06-26T09:30:01;90008.69;;;21.97;59.86
76074;BME280;64776;42.636;24.358;2023-06-26T09:33:14;90000.53;;;22.12;61.36
76074;BME280;64776;42.636;24.358;2023-06-26T09:36:19;90003.56;;;22.31;60.14
76074;BME280;64776;42.636;24.358;2023-06-26T09:39:20;90001.38;;;22.37;59.69
76074;BME280;64776;42.636;24.358;2023-06-26T09:42:21;90006.75;;;22.52;60.08
76074;BME280;64776;42.636;24.358;2023-06-26T09:45:22;90009.22;;;22.81;56.59
76074;BME280;64776;42.636;24.358;2023-06-26T09:48:25;90006.94;;;23.02;57.55
76074;BME280;64776;42.636;24.358;2023-06-26T09:51:25;90004.34;;;22.79;55.98
76074;BME280;64776;42.636;24.358;2023-06-26T09:54:27;90001.75;;;22.26;57.33
76074;BME280;64776;42.636;24.358;2023-06-26T09:57:28;90005.53;;;22.93;58.84
76074;BME280;64776;42.636;24.358;2023-06-26T10:00:29;90015.63;;;23.08;58.38
76074;BME280;64776;42.636;24.358;2023-06-26T10:03:31;90017.38;;;22.18;59.06
76074;BME280;64776;42.636;24.358;2023-06-26T10:06:36;90026.75;;;22.32;60.34
76074;BME280;64776;42.636;24.358;2023-06-26T10:09:37;90034.63;;;21.83;60.88
76074;BME280;64776;42.636;24.358;2023-06-26T10:12:42;90016.69;;;21.88;62.95
76074;BME280;64776;42.636;24.358;2023-06-26T10:15:46;90001.78;;;22.19;60.98
76074;BME280;64776;42.636;24.358;2023-06-26T10:18:51;90003.41;;;22.29;60.24
76074;BME280;64776;42.636;24.358;2023-06-26T10:21:54;90006.69;;;22.75;59.20
76074;BME280;64776;42.636;24.358;2023-06-26T10:24:56;90000.22;;;23.03;61.06
76074;BME280;64776;42.636;24.358;2023-06-26T10:28:00;90000.66;;;23.24;55.76
76074;BME280;64776;42.636;24.358;2023-06-26T10:31:04;89993.91;;;23.57;55.82
76074;BME280;64776;42.636;24.358;2023-06-26T10:34:08;89986.91;;;23.47;55.81
76074;BME280;64776;42.636;24.358;2023-06-26T10:37:09;89995.63;;;23.13;54.86
76074;BME280;64776;42.636;24.358;2023-06-26T10:40:10;89994.59;;;23.01;54.40
76074;BME280;64776;42.636;24.358;2023-06-26T10:43:12;89996.03;;;22.70;55.02
76074;BME280;64776;42.636;24.358;2023-06-26T10:46:15;89986.03;;;22.72;54.53
76074;BME280;64776;42.636;24.358;2023-06-26T10:49:17;89986.13;;;23.21;54.12
76074;BME280;64776;42.636;24.358;2023-06-26T10:52:18;89972.28;;;23.59;53.77
76074;BME280;64776;42.636;24.358;2023-06-26T10:55:27;89980.72;;;23.46;54.29
76074;BME280;64776;42.636;24.358;2023-06-26T10:58:32;89982.34;;;23.49;53.25
76074;BME280;64776;42.636;24.358;2023-06-26T11:01:40;89981.28;;;23.12;54.69
76074;BME280;64776;42.636;24.358;2023-06-26T11:04:44;89980.56;;;23.12;54.72
76074;BME280;64776;42.636;24.358;2023-06-26T11:11:00;89988.91;;;22.82;55.39
76074;BME280;64776;42.636;24.358;2023-06-26T11:14:02;89984.56;;;22.79;57.99
76074;BME280;64776;42.636;24.358;2023-06-26T11:17:03;89982.97;;;22.68;56.02
76074;BME280;64776;42.636;24.358;2023-06-26T11:20:07;89978.56;;;22.33;56.44
76074;BME280;64776;42.636;24.358;2023-06-26T11:23:09;89978.09;;;22.04;56.49
76074;BME280;64776;42.636;24.358;2023-06-26T11:26:14;89979.84;;;22.24;56.84
76074;BME280;64776;42.636;24.358;2023-06-26T11:29:14;89988.44;;;21.91;57.63
76074;BME280;64776;42.636;24.358;2023-06-26T11:32:15;89998.72;;;22.07;58.23
76074;BME280;64776;42.636;24.358;2023-06-26T11:35:23;89984.50;;;22.39;57.01
76074;BME280;64776;42.636;24.358;2023-06-26T11:38:25;89980.50;;;22.95;55.90
76074;BME280;64776;42.636;24.358;2023-06-26T11:41:27;89980.63;;;23.36;55.03
76074;BME280;64776;42.636;24.358;2023-06-26T11:44:31;89986.28;;;22.99;55.21
76074;BME280;64776;42.636;24.358;2023-06-26T11:47:32;89989.75;;;22.44;56.44
76074;BME280;64776;42.636;24.358;2023-06-26T11:50:37;89986.97;;;22.67;56.68
76074;BME280;64776;42.636;24.358;2023-06-26T11:53:39;89993.00;;;22.58;56.53
76074;BME280;64776;42.636;24.358;2023-06-26T11:56:40;89984.44;;;22.61;56.84
76074;BME280;64776;42.636;24.358;2023-06-26T11:59:41;89988.38;;;22.76;55.46
76074;BME280;64776;42.636;24.358;2023-06-26T12:02:42;89984.34;;;22.84;55.86
76074;BME280;64776;42.636;24.358;2023-06-26T12:05:45;89992.91;;;22.81;55.48
76074;BME280;64776;42.636;24.358;2023-06-26T12:08:46;89980.72;;;22.82;57.19
76074;BME280;64776;42.636;24.358;2023-06-26T12:11:48;89983.53;;;22.67;58.19
76074;BME280;64776;42.636;24.358;2023-06-26T12:14:52;89985.38;;;22.96;58.93
76074;BME280;64776;42.636;24.358;2023-06-26T12:17:52;89983.59;;;23.23;57.99
76074;BME280;64776;42.636;24.358;2023-06-26T12:20:55;89985.25;;;22.87;57.75
76074;BME280;64776;42.636;24.358;2023-06-26T12:24:00;89987.69;;;22.67;59.63
76074;BME280;64776;42.636;24.358;2023-06-26T12:27:01;89987.63;;;22.35;59.11
76074;BME280;64776;42.636;24.358;2023-06-26T12:30:05;89988.63;;;21.85;59.82
76074;BME280;64776;42.636;24.358;2023-06-26T12:33:13;89988.41;;;21.23;61.65
76074;BME280;64776;42.636;24.358;2023-06-26T12:36:15;90006.53;;;21.20;62.54
76074;BME280;64776;42.636;24.358;2023-06-26T12:39:17;90012.28;;;21.09;63.06
76074;BME280;64776;42.636;24.358;2023-06-26T12:42:19;90011.22;;;21.27;63.99
76074;BME280;64776;42.636;24.358;2023-06-26T12:45:20;90012.88;;;21.30;64.66
76074;BME280;64776;42.636;24.358;2023-06-26T12:48:21;90018.00;;;20.98;65.72
76074;BME280;64776;42.636;24.358;2023-06-26T12:51:23;90030.84;;;20.47;66.39
76074;BME280;64776;42.636;24.358;2023-06-26T12:54:24;90026.19;;;20.19;69.25
76074;BME280;64776;42.636;24.358;2023-06-26T12:57:26;90033.06;;;20.20;68.81
76074;BME280;64776;42.636;24.358;2023-06-26T13:00:27;90035.25;;;20.21;70.82
76074;BME280;64776;42.636;24.358;2023-06-26T13:03:27;90031.22;;;20.15;72.74
76074;BME280;64776;42.636;24.358;2023-06-26T13:06:29;90038.97;;;20.11;73.06
76074;BME280;64776;42.636;24.358;2023-06-26T13:09:32;90041.56;;;19.96;73.94
76074;BME280;64776;42.636;24.358;2023-06-26T13:12:33;90056.09;;;19.57;73.80
76074;BME280;64776;42.636;24.358;2023-06-26T13:15:33;90063.19;;;19.26;77.49
76074;BME280;64776;42.636;24.358;2023-06-26T13:18:34;90064.25;;;19.23;77.90
76074;BME280;64776;42.636;24.358;2023-06-26T13:21:36;90059.78;;;18.92;77.16
76074;BME280;64776;42.636;24.358;2023-06-26T13:24:37;90058.78;;;18.82;79.46
76074;BME280;64776;42.636;24.358;2023-06-26T13:27:38;90058.53;;;18.93;79.84
76074;BME280;64776;42.636;24.358;2023-06-26T13:30:39;90045.19;;;18.75;79.43
76074;BME280;64776;42.636;24.358;2023-06-26T13:33:40;90043.44;;;18.64;79.58
76074;BME280;64776;42.636;24.358;2023-06-26T13:36:42;90049.47;;;18.57;79.84
76074;BME280;64776;42.636;24.358;2023-06-26T13:39:42;90043.88;;;18.42;78.44
76074;BME280;64776;42.636;24.358;2023-06-26T13:42:43;90057.50;;;18.62;80.67
76074;BME280;64776;42.636;24.358;2023-06-26T13:45:44;90050.22;;;18.57;79.82
76074;BME280;64776;42.636;24.358;2023-06-26T13:48:45;90064.97;;;18.56;80.23
76074;BME280;64776;42.636;24.358;2023-06-26T13:51:47;90059.28;;;18.34;80.52
76074;BME280;64776;42.636;24.358;2023-06-26T13:54:48;90064.47;;;18.19;79.94
76074;BME280;64776;42.636;24.358;2023-06-26T13:57:49;90059.06;;;18.19;82.32
76074;BME280;64776;42.636;24.358;2023-06-26T14:00:49;90063.94;;;18.33;82.71
76074;BME280;64776;42.636;24.358;2023-06-26T14:03:50;90061.97;;;18.34;80.12
76074;BME280;64776;42.636;24.358;2023-06-26T14:06:52;90066.56;;;18.26;80.35
76074;BME280;64776;42.636;24.358;2023-06-26T14:09:53;90065.50;;;18.16;81.40
76074;BME280;64776;42.636;24.358;2023-06-26T14:12:54;90057.50;;;18.23;81.19
76074;BME280;64776;42.636;24.358;2023-06-26T14:15:55;90060.50;;;18.20;79.45
76074;BME280;64776;42.636;24.358;2023-06-26T14:18:56;90051.78;;;18.14;79.31
76074;BME280;64776;42.636;24.358;2023-06-26T14:21:58;90056.47;;;18.13;79.85
76074;BME280;64776;42.636;24.358;2023-06-26T14:24:59;90055.63;;;18.18;79.55
76074;BME280;64776;42.636;24.358;2023-06-26T14:27:59;90043.41;;;18.17;80.43
76074;BME280;64776;42.636;24.358;2023-06-26T14:31:00;90036.00;;;18.18;80.80
76074;BME280;64776;42.636;24.358;2023-06-26T14:34:01;90039.84;;;18.22;80.08
76074;BME280;64776;42.636;24.358;2023-06-26T14:37:04;90037.06;;;18.15;79.76
76074;BME280;64776;42.636;24.358;2023-06-26T14:40:06;90034.34;;;18.28;79.91
76074;BME280;64776;42.636;24.358;2023-06-26T14:43:07;90026.31;;;18.35;79.48
76074;BME280;64776;42.636;24.358;2023-06-26T14:46:08;90027.41;;;18.19;81.06
76074;BME280;64776;42.636;24.358;2023-06-26T14:49:09;90022.50;;;18.31;79.76
76074;BME280;64776;42.636;24.358;2023-06-26T14:52:11;90023.63;;;18.35;81.14
76074;BME280;64776;42.636;24.358;2023-06-26T14:55:12;90014.53;;;18.59;81.16
76074;BME280;64776;42.636;24.358;2023-06-26T14:58:13;90016.63;;;18.66;79.86
76074;BME280;64776;42.636;24.358;2023-06-26T15:01:13;90010.59;;;18.60;80.42
76074;BME280;64776;42.636;24.358;2023-06-26T15:04:14;90011.63;;;18.70;79.52
76074;BME280;64776;42.636;24.358;2023-06-26T15:07:16;90020.19;;;18.82;77.90
76074;BME280;64776;42.636;24.358;2023-06-26T15:10:17;90023.50;;;18.88;76.88
76074;BME280;64776;42.636;24.358;2023-06-26T15:13:18;90029.78;;;19.03;76.95
76074;BME280;64776;42.636;24.358;2023-06-26T15:16:19;90024.13;;;19.14;76.65
76074;BME280;64776;42.636;24.358;2023-06-26T15:19:19;90027.75;;;19.17;77.86
76074;BME280;64776;42.636;24.358;2023-06-26T15:22:22;90029.03;;;19.16;77.02
76074;BME280;64776;42.636;24.358;2023-06-26T15:25:23;90034.22;;;19.14;77.81
76074;BME280;64776;42.636;24.358;2023-06-26T15:28:24;90035.06;;;19.09;78.49
76074;BME280;64776;42.636;24.358;2023-06-26T15:31:25;90046.03;;;19.03;77.70
76074;BME280;64776;42.636;24.358;2023-06-26T15:34:29;90037.47;;;19.12;77.88
76074;BME280;64776;42.636;24.358;2023-06-26T15:37:31;90036.59;;;19.17;77.91
76074;BME280;64776;42.636;24.358;2023-06-26T15:40:32;90028.09;;;19.13;78.19
76074;BME280;64776;42.636;24.358;2023-06-26T15:43:33;90036.00;;;19.11;77.39
76074;BME280;64776;42.636;24.358;2023-06-26T15:46:34;90039.00;;;18.87;78.03
76074;BME280;64776;42.636;24.358;2023-06-26T15:49:34;90044.03;;;18.83;78.28
76074;BME280;64776;42.636;24.358;2023-06-26T15:52:37;90042.28;;;18.73;78.86